sensor_id;sensor_type;location;lat;lon;timestamp;temperature;humidity
11748;DHT22;5931;48.832;9.072;2023-03-24T00:01:13;12.70;99.90
11748;DHT22;5931;48.832;9.072;2023-03-24T00:03:39;12.80;99.90
11748;DHT22;5931;48.832;9.072;2023-03-24T00:06:06;12.90;99.90
11748;DHT22;5931;48.832;9.072;2023-03-24T00:08:35;12.90;99.90
11748;DHT22;5931;48.832;9.072;2023-03-24T00:11:03;12.90;99.90
11748;DHT22;5931;48.832;9.072;2023-03-24T00:13:31;12.90;99.90
11748;DHT22;5931;48.832;9.072;2023-03-24T00:16:06;12.80;99.90
11748;DHT22;5931;48.832;9.072;2023-03-24T00:18:32;12.80;99.90
11748;DHT22;5931;48.832;9.072;2023-03-24T00:20:59;12.80;99.90
11748;DHT22;5931;48.832;9.072;2023-03-24T00:23:29;12.90;99.90
11748;DHT22;5931;48.832;9.072;2023-03-24T00:26:07;13.00;99.90
11748;DHT22;5931;48.832;9.072;2023-03-24T00:28:35;13.00;99.90
11748;DHT22;5931;48.832;9.072;2023-03-24T00:31:02;13.00;99.90
11748;DHT22;5931;48.832;9.072;2023-03-24T00:33:29;13.00;99.90
11748;DHT22;5931;48.832;9.072;2023-03-24T00:36:02;13.00;99.90
11748;DHT22;5931;48.832;9.072;2023-03-24T00:38:28;13.10;99.90
11748;DHT22;5931;48.832;9.072;2023-03-24T00:40:54;13.20;99.90
11748;DHT22;5931;48.832;9.072;2023-03-24T00:43:20;13.20;99.90
11748;DHT22;5931;48.832;9.072;2023-03-24T00:45:46;13.20;99.90
11748;DHT22;5931;48.832;9.072;2023-03-24T00:48:13;13.20;99.90
11748;DHT22;5931;48.832;9.072;2023-03-24T00:50:42;13.30;99.90
11748;DHT22;5931;48.832;9.072;2023-03-24T00:53:09;13.40;99.90
11748;DHT22;5931;48.832;9.072;2023-03-24T00:55:36;13.30;99.90
11748;DHT22;5931;48.832;9.072;2023-03-24T00:58:03;13.20;99.90
11748;DHT22;5931;48.832;9.072;2023-03-24T01:00:28;13.10;99.90
11748;DHT22;5931;48.832;9.072;2023-03-24T01:02:56;13.20;99.90
11748;DHT22;5931;48.832;9.072;2023-03-24T01:05:27;13.30;99.90
11748;DHT22;5931;48.832;9.072;2023-03-24T01:07:58;13.40;99.90
11748;DHT22;5931;48.832;9.072;2023-03-24T01:10:29;13.40;99.90
11748;DHT22;5931;48.832;9.072;2023-03-24T01:12:56;13.30;99.90
11748;DHT22;5931;48.832;9.072;2023-03-24T01:15:26;13.30;99.90
11748;DHT22;5931;48.832;9.072;2023-03-24T01:17:52;13.20;99.90
11748;DHT22;5931;48.832;9.072;2023-03-24T01:20:19;13.00;99.90
11748;DHT22;5931;48.832;9.072;2023-03-24T01:22:48;13.10;99.90
11748;DHT22;5931;48.832;9.072;2023-03-24T01:25:16;13.20;99.90
11748;DHT22;5931;48.832;9.072;2023-03-24T01:27:44;13.20;99.90
11748;DHT22;5931;48.832;9.072;2023-03-24T01:30:13;13.30;99.90
11748;DHT22;5931;48.832;9.072;2023-03-24T01:32:40;13.30;99.90
11748;DHT22;5931;48.832;9.072;2023-03-24T01:35:07;13.30;99.90
11748;DHT22;5931;48.832;9.072;2023-03-24T01:37:32;13.30;99.90
11748;DHT22;5931;48.832;9.072;2023-03-24T01:39:58;13.40;99.90
11748;DHT22;5931;48.832;9.072;2023-03-24T01:42:26;13.50;99.90
11748;DHT22;5931;48.832;9.072;2023-03-24T01:45:01;13.50;99.90
11748;DHT22;5931;48.832;9.072;2023-03-24T06:29:42;11.80;99.90
11748;DHT22;5931;48.832;9.072;2023-03-24T06:32:09;11.80;99.90
11748;DHT22;5931;48.832;9.072;2023-03-24T06:34:40;11.90;99.90
11748;DHT22;5931;48.832;9.072;2023-03-24T06:37:20;12.10;99.90
11748;DHT22;5931;48.832;9.072;2023-03-24T06:39:46;12.20;99.90
11748;DHT22;5931;48.832;9.072;2023-03-24T06:42:14;12.30;99.90
11748;DHT22;5931;48.832;9.072;2023-03-24T06:44:40;12.60;99.90
11748;DHT22;5931;48.832;9.072;2023-03-24T06:47:06;12.70;99.90
11748;DHT22;5931;48.832;9.072;2023-03-24T06:49:32;12.80;99.90
11748;DHT22;5931;48.832;9.072;2023-03-24T06:52:00;13.00;99.90
11748;DHT22;5931;48.832;9.072;2023-03-24T06:54:27;13.00;99.90
11748;DHT22;5931;48.832;9.072;2023-03-24T06:56:53;13.00;99.90
11748;DHT22;5931;48.832;9.072;2023-03-24T06:59:20;13.10;99.90
11748;DHT22;5931;48.832;9.072;2023-03-24T07:01:51;13.20;99.90
11748;DHT22;5931;48.832;9.072;2023-03-24T07:04:21;13.20;99.90
11748;DHT22;5931;48.832;9.072;2023-03-24T07:07:13;13.20;99.90
11748;DHT22;5931;48.832;9.072;2023-03-24T07:09:40;13.20;99.90
11748;DHT22;5931;48.832;9.072;2023-03-24T07:12:06;13.10;99.90
11748;DHT22;5931;48.832;9.072;2023-03-24T07:22:31;13.00;99.90
11748;DHT22;5931;48.832;9.072;2023-03-24T07:25:32;13.00;99.90
11748;DHT22;5931;48.832;9.072;2023-03-24T07:28:11;12.90;99.90
11748;DHT22;5931;48.832;9.072;2023-03-24T07:30:38;12.90;99.90
11748;DHT22;5931;48.832;9.072;2023-03-24T07:33:05;12.80;99.90
11748;DHT22;5931;48.832;9.072;2023-03-24T07:35:31;12.80;99.90
11748;DHT22;5931;48.832;9.072;2023-03-24T07:38:00;12.70;99.90
11748;DHT22;5931;48.832;9.072;2023-03-24T07:40:27;12.70;99.90
11748;DHT22;5931;48.832;9.072;2023-03-24T07:42:52;12.70;99.90
11748;DHT22;5931;48.832;9.072;2023-03-24T07:45:33;12.60;99.90
11748;DHT22;5931;48.832;9.072;2023-03-24T07:47:59;12.60;99.90
11748;DHT22;5931;48.832;9.072;2023-03-24T07:50:31;12.70;99.90
11748;DHT22;5931;48.832;9.072;2023-03-24T07:52:58;12.70;99.90
11748;DHT22;5931;48.832;9.072;2023-03-24T07:55:24;12.70;99.90
11748;DHT22;5931;48.832;9.072;2023-03-24T07:57:57;12.70;99.90
11748;DHT22;5931;48.832;9.072;2023-03-24T08:00:25;12.70;99.90
11748;DHT22;5931;48.832;9.072;2023-03-24T08:03:03;12.70;99.90
11748;DHT22;5931;48.832;9.072;2023-03-24T08:05:57;12.80;99.90
11748;DHT22;5931;48.832;9.072;2023-03-24T08:08:30;12.70;99.90
11748;DHT22;5931;48.832;9.072;2023-03-24T08:10:56;12.70;99.90
11748;DHT22;5931;48.832;9.072;2023-03-24T08:13:22;12.70;99.90
11748;DHT22;5931;48.832;9.072;2023-03-24T08:15:48;12.70;99.90
11748;DHT22;5931;48.832;9.072;2023-03-24T08:18:14;12.70;99.90
11748;DHT22;5931;48.832;9.072;2023-03-24T08:20:40;12.70;99.90
11748;DHT22;5931;48.832;9.072;2023-03-24T08:23:06;12.80;99.90
11748;DHT22;5931;48.832;9.072;2023-03-24T08:25:33;12.90;99.90
11748;DHT22;5931;48.832;9.072;2023-03-24T08:28:00;12.90;99.90
11748;DHT22;5931;48.832;9.072;2023-03-24T08:30:26;13.00;99.90
11748;DHT22;5931;48.832;9.072;2023-03-24T08:32:54;13.10;99.90
11748;DHT22;5931;48.832;9.072;2023-03-24T08:35:23;13.10;99.90
11748;DHT22;5931;48.832;9.072;2023-03-24T08:37:50;13.20;99.90
11748;DHT22;5931;48.832;9.072;2023-03-24T08:40:19;13.20;99.90
11748;DHT22;5931;48.832;9.072;2023-03-24T08:42:49;13.30;99.90
11748;DHT22;5931;48.832;9.072;2023-03-24T08:45:16;13.40;99.90
11748;DHT22;5931;48.832;9.072;2023-03-24T08:47:46;13.40;99.90
11748;DHT22;5931;48.832;9.072;2023-03-24T08:50:12;13.50;99.90
11748;DHT22;5931;48.832;9.072;2023-03-24T08:52:38;13.60;99.90
11748;DHT22;5931;48.832;9.072;2023-03-24T08:55:07;13.60;99.90
11748;DHT22;5931;48.832;9.072;2023-03-24T08:57:34;13.60;99.90
11748;DHT22;5931;48.832;9.072;2023-03-24T09:00:00;13.80;99.90
11748;DHT22;5931;48.832;9.072;2023-03-24T09:02:26;13.90;99.90
11748;DHT22;5931;48.832;9.072;2023-03-24T09:04:52;14.00;99.90
11748;DHT22;5931;48.832;9.072;2023-03-24T09:07:20;14.10;99.90
11748;DHT22;5931;48.832;9.072;2023-03-24T09:09:46;14.20;99.90
11748;DHT22;5931;48.832;9.072;2023-03-24T09:12:11;14.30;99.90
11748;DHT22;5931;48.832;9.072;2023-03-24T09:14:37;14.20;99.90
11748;DHT22;5931;48.832;9.072;2023-03-24T09:17:03;14.20;99.90
11748;DHT22;5931;48.832;9.072;2023-03-24T09:19:29;14.10;99.90
11748;DHT22;5931;48.832;9.072;2023-03-24T09:21:56;14.00;99.90
11748;DHT22;5931;48.832;9.072;2023-03-24T09:24:22;14.10;99.90
11748;DHT22;5931;48.832;9.072;2023-03-24T09:26:47;14.30;99.90
11748;DHT22;5931;48.832;9.072;2023-03-24T09:29:13;14.50;99.90
11748;DHT22;5931;48.832;9.072;2023-03-24T09:31:38;14.70;99.90
11748;DHT22;5931;48.832;9.072;2023-03-24T09:34:04;14.90;99.90
11748;DHT22;5931;48.832;9.072;2023-03-24T09:36:30;15.00;99.90
11748;DHT22;5931;48.832;9.072;2023-03-24T09:38:55;15.10;99.90
11748;DHT22;5931;48.832;9.072;2023-03-24T09:41:29;15.20;99.90
11748;DHT22;5931;48.832;9.072;2023-03-24T09:44:24;15.40;99.90
11748;DHT22;5931;48.832;9.072;2023-03-24T09:47:23;15.40;99.90
11748;DHT22;5931;48.832;9.072;2023-03-24T09:49:51;15.50;99.90
11748;DHT22;5931;48.832;9.072;2023-03-24T09:52:22;15.70;99.90
11748;DHT22;5931;48.832;9.072;2023-03-24T09:54:53;15.80;99.90
11748;DHT22;5931;48.832;9.072;2023-03-24T09:59:51;16.20;99.90
11748;DHT22;5931;48.832;9.072;2023-03-24T10:02:21;16.30;99.90
11748;DHT22;5931;48.832;9.072;2023-03-24T10:04:48;16.30;99.90
11748;DHT22;5931;48.832;9.072;2023-03-24T10:07:28;16.30;99.90
11748;DHT22;5931;48.832;9.072;2023-03-24T10:09:57;16.60;99.90
11748;DHT22;5931;48.832;9.072;2023-03-24T10:12:38;16.80;99.90
11748;DHT22;5931;48.832;9.072;2023-03-24T10:15:27;16.80;99.90
11748;DHT22;5931;48.832;9.072;2023-03-24T10:20:55;16.90;99.90
11748;DHT22;5931;48.832;9.072;2023-03-24T10:31:31;17.20;99.90
11748;DHT22;5931;48.832;9.072;2023-03-24T10:33:58;16.80;99.90
11748;DHT22;5931;48.832;9.072;2023-03-24T10:36:25;16.80;99.90
11748;DHT22;5931;48.832;9.072;2023-03-24T10:38:51;16.70;99.90
11748;DHT22;5931;48.832;9.072;2023-03-24T10:41:23;16.50;99.90
11748;DHT22;5931;48.832;9.072;2023-03-24T10:43:54;16.50;99.90
11748;DHT22;5931;48.832;9.072;2023-03-24T10:46:23;16.50;99.90
11748;DHT22;5931;48.832;9.072;2023-03-24T10:49:07;16.70;99.90
11748;DHT22;5931;48.832;9.072;2023-03-24T10:51:35;16.80;99.90
11748;DHT22;5931;48.832;9.072;2023-03-24T10:54:13;16.70;99.90
11748;DHT22;5931;48.832;9.072;2023-03-24T10:56:42;16.80;99.90
11748;DHT22;5931;48.832;9.072;2023-03-24T10:59:22;16.90;99.90
11748;DHT22;5931;48.832;9.072;2023-03-24T11:01:58;17.20;99.90
11748;DHT22;5931;48.832;9.072;2023-03-24T11:04:25;17.20;99.90
11748;DHT22;5931;48.832;9.072;2023-03-24T11:07:02;17.10;99.90
11748;DHT22;5931;48.832;9.072;2023-03-24T11:09:29;17.00;99.90
11748;DHT22;5931;48.832;9.072;2023-03-24T11:12:03;17.40;99.90
11748;DHT22;5931;48.832;9.072;2023-03-24T11:14:31;17.50;99.90
11748;DHT22;5931;48.832;9.072;2023-03-24T11:17:11;17.70;99.90
11748;DHT22;5931;48.832;9.072;2023-03-24T11:19:54;17.70;99.90
11748;DHT22;5931;48.832;9.072;2023-03-24T11:22:21;17.50;99.90
11748;DHT22;5931;48.832;9.072;2023-03-24T11:24:50;17.30;99.90
11748;DHT22;5931;48.832;9.072;2023-03-24T11:27:19;17.10;99.90
11748;DHT22;5931;48.832;9.072;2023-03-24T11:29:51;16.90;99.90
11748;DHT22;5931;48.832;9.072;2023-03-24T11:32:23;17.00;99.90
11748;DHT22;5931;48.832;9.072;2023-03-24T11:35:00;17.10;99.90
11748;DHT22;5931;48.832;9.072;2023-03-24T11:37:34;16.90;99.90
11748;DHT22;5931;48.832;9.072;2023-03-24T11:40:18;16.60;99.90
11748;DHT22;5931;48.832;9.072;2023-03-24T11:42:59;16.50;99.90
11748;DHT22;5931;48.832;9.072;2023-03-24T11:47:54;15.90;99.90
11748;DHT22;5931;48.832;9.072;2023-03-24T11:50:27;15.70;99.90
11748;DHT22;5931;48.832;9.072;2023-03-24T11:53:06;15.60;99.90
11748;DHT22;5931;48.832;9.072;2023-03-24T11:55:41;15.50;99.90
11748;DHT22;5931;48.832;9.072;2023-03-24T12:06:45;15.40;99.90
11748;DHT22;5931;48.832;9.072;2023-03-24T12:09:26;15.40;99.90
11748;DHT22;5931;48.832;9.072;2023-03-24T12:12:37;15.40;99.90
11748;DHT22;5931;48.832;9.072;2023-03-24T12:17:50;16.00;99.90
11748;DHT22;5931;48.832;9.072;2023-03-24T12:21:16;16.40;99.90
11748;DHT22;5931;48.832;9.072;2023-03-24T12:37:33;16.60;99.90
11748;DHT22;5931;48.832;9.072;2023-03-24T12:45:51;16.20;99.90
11748;DHT22;5931;48.832;9.072;2023-03-24T12:48:26;16.10;99.90
11748;DHT22;5931;48.832;9.072;2023-03-24T12:51:08;16.10;99.90
11748;DHT22;5931;48.832;9.072;2023-03-24T12:59:08;16.70;99.90
11748;DHT22;5931;48.832;9.072;2023-03-24T13:01:41;16.80;99.90
11748;DHT22;5931;48.832;9.072;2023-03-24T13:06:43;17.10;99.90
11748;DHT22;5931;48.832;9.072;2023-03-24T13:09:24;17.20;99.90
11748;DHT22;5931;48.832;9.072;2023-03-24T13:14:33;17.10;99.90
11748;DHT22;5931;48.832;9.072;2023-03-24T13:17:05;16.90;99.90
11748;DHT22;5931;48.832;9.072;2023-03-24T13:19:33;17.00;99.90
11748;DHT22;5931;48.832;9.072;2023-03-24T13:22:01;16.70;99.90
11748;DHT22;5931;48.832;9.072;2023-03-24T13:24:29;16.60;99.90
11748;DHT22;5931;48.832;9.072;2023-03-24T13:38:04;14.80;99.90
11748;DHT22;5931;48.832;9.072;2023-03-24T13:40:31;14.30;99.90
11748;DHT22;5931;48.832;9.072;2023-03-24T13:43:16;14.10;99.90
11748;DHT22;5931;48.832;9.072;2023-03-24T13:45:47;13.60;99.90
11748;DHT22;5931;48.832;9.072;2023-03-24T13:48:30;13.20;99.90
11748;DHT22;5931;48.832;9.072;2023-03-24T13:51:00;13.00;99.90
11748;DHT22;5931;48.832;9.072;2023-03-24T13:53:37;12.70;99.90
11748;DHT22;5931;48.832;9.072;2023-03-24T13:56:05;12.60;99.90
11748;DHT22;5931;48.832;9.072;2023-03-24T14:01:14;12.40;99.90
11748;DHT22;5931;48.832;9.072;2023-03-24T14:03:46;12.40;99.90
11748;DHT22;5931;48.832;9.072;2023-03-24T14:07:05;12.30;99.90
11748;DHT22;5931;48.832;9.072;2023-03-24T14:17:55;11.50;99.90
11748;DHT22;5931;48.832;9.072;2023-03-24T14:20:40;11.30;99.90
11748;DHT22;5931;48.832;9.072;2023-03-24T14:23:20;11.20;99.90
11748;DHT22;5931;48.832;9.072;2023-03-24T14:25:53;11.30;99.90
11748;DHT22;5931;48.832;9.072;2023-03-24T14:28:24;11.20;99.90
11748;DHT22;5931;48.832;9.072;2023-03-24T14:31:07;11.10;99.90
11748;DHT22;5931;48.832;9.072;2023-03-24T14:36:08;11.00;99.90
11748;DHT22;5931;48.832;9.072;2023-03-24T14:38:42;10.90;99.90
11748;DHT22;5931;48.832;9.072;2023-03-24T14:41:14;10.90;99.90
11748;DHT22;5931;48.832;9.072;2023-03-24T14:49:03;10.90;99.90
11748;DHT22;5931;48.832;9.072;2023-03-24T14:51:57;10.90;99.90
11748;DHT22;5931;48.832;9.072;2023-03-24T14:56:59;11.00;99.90
11748;DHT22;5931;48.832;9.072;2023-03-24T14:59:46;11.00;99.90
11748;DHT22;5931;48.832;9.072;2023-03-24T15:02:30;10.90;99.90
11748;DHT22;5931;48.832;9.072;2023-03-24T15:08:10;10.80;99.90
11748;DHT22;5931;48.832;9.072;2023-03-24T15:13:40;11.00;99.90
11748;DHT22;5931;48.832;9.072;2023-03-24T15:18:45;11.00;99.90
11748;DHT22;5931;48.832;9.072;2023-03-24T15:21:14;11.10;99.90
11748;DHT22;5931;48.832;9.072;2023-03-24T15:23:45;11.10;99.90
11748;DHT22;5931;48.832;9.072;2023-03-24T15:26:12;11.20;99.90
11748;DHT22;5931;48.832;9.072;2023-03-24T15:28:38;11.30;99.90
11748;DHT22;5931;48.832;9.072;2023-03-24T15:31:04;11.40;99.90
11748;DHT22;5931;48.832;9.072;2023-03-24T15:33:38;11.50;99.90
11748;DHT22;5931;48.832;9.072;2023-03-24T15:36:15;11.60;99.90
11748;DHT22;5931;48.832;9.072;2023-03-24T15:38:46;11.70;99.90
11748;DHT22;5931;48.832;9.072;2023-03-24T15:41:13;11.80;99.90
11748;DHT22;5931;48.832;9.072;2023-03-24T15:43:45;11.90;99.90
11748;DHT22;5931;48.832;9.072;2023-03-24T15:46:26;12.00;99.90
11748;DHT22;5931;48.832;9.072;2023-03-24T15:48:53;12.10;99.90
11748;DHT22;5931;48.832;9.072;2023-03-24T15:51:23;12.10;99.90
11748;DHT22;5931;48.832;9.072;2023-03-24T15:54:25;12.20;99.90
11748;DHT22;5931;48.832;9.072;2023-03-24T15:57:00;12.30;99.90
11748;DHT22;5931;48.832;9.072;2023-03-24T15:59:36;12.30;99.90
11748;DHT22;5931;48.832;9.072;2023-03-24T16:02:14;12.20;99.90
11748;DHT22;5931;48.832;9.072;2023-03-24T16:04:42;12.20;99.90
11748;DHT22;5931;48.832;9.072;2023-03-24T16:07:24;12.30;99.90
11748;DHT22;5931;48.832;9.072;2023-03-24T16:10:05;12.50;99.90
11748;DHT22;5931;48.832;9.072;2023-03-24T16:12:35;12.60;99.90
11748;DHT22;5931;48.832;9.072;2023-03-24T16:15:02;12.80;99.90
11748;DHT22;5931;48.832;9.072;2023-03-24T16:17:31;13.00;99.90
11748;DHT22;5931;48.832;9.072;2023-03-24T16:19:56;13.10;99.90
11748;DHT22;5931;48.832;9.072;2023-03-24T16:22:22;13.10;99.90
11748;DHT22;5931;48.832;9.072;2023-03-24T16:24:48;13.40;99.90
11748;DHT22;5931;48.832;9.072;2023-03-24T16:27:14;13.30;99.90
11748;DHT22;5931;48.832;9.072;2023-03-24T16:29:40;13.10;99.90
11748;DHT22;5931;48.832;9.072;2023-03-24T16:32:08;12.90;99.90
11748;DHT22;5931;48.832;9.072;2023-03-24T16:34:34;12.80;99.90
11748;DHT22;5931;48.832;9.072;2023-03-24T16:37:01;12.80;99.90
11748;DHT22;5931;48.832;9.072;2023-03-24T16:39:29;12.80;99.90
11748;DHT22;5931;48.832;9.072;2023-03-24T16:41:56;13.10;99.90
11748;DHT22;5931;48.832;9.072;2023-03-24T16:44:22;14.10;99.90
11748;DHT22;5931;48.832;9.072;2023-03-24T16:46:49;15.00;99.90
11748;DHT22;5931;48.832;9.072;2023-03-24T16:49:17;15.50;99.90
11748;DHT22;5931;48.832;9.072;2023-03-24T16:51:44;15.80;99.90
11748;DHT22;5931;48.832;9.072;2023-03-24T16:54:10;16.40;99.90
11748;DHT22;5931;48.832;9.072;2023-03-24T16:56:36;16.60;99.90
11748;DHT22;5931;48.832;9.072;2023-03-24T16:59:03;16.10;99.90
11748;DHT22;5931;48.832;9.072;2023-03-24T17:01:37;15.30;99.90
11748;DHT22;5931;48.832;9.072;2023-03-24T17:04:30;14.30;99.90
11748;DHT22;5931;48.832;9.072;2023-03-24T17:06:58;13.50;99.90
11748;DHT22;5931;48.832;9.072;2023-03-24T17:09:24;13.00;99.90
11748;DHT22;5931;48.832;9.072;2023-03-24T17:11:55;12.60;99.90
11748;DHT22;5931;48.832;9.072;2023-03-24T17:14:23;12.40;99.90
11748;DHT22;5931;48.832;9.072;2023-03-24T17:16:49;12.10;99.90
11748;DHT22;5931;48.832;9.072;2023-03-24T17:19:19;12.00;99.90
11748;DHT22;5931;48.832;9.072;2023-03-24T17:22:12;11.80;99.90
11748;DHT22;5931;48.832;9.072;2023-03-24T17:24:42;11.70;99.90
11748;DHT22;5931;48.832;9.072;2023-03-24T17:27:14;11.70;99.90
11748;DHT22;5931;48.832;9.072;2023-03-24T17:29:41;11.60;99.90
11748;DHT22;5931;48.832;9.072;2023-03-24T17:32:07;11.50;99.90
11748;DHT22;5931;48.832;9.072;2023-03-24T17:34:32;11.50;99.90
11748;DHT22;5931;48.832;9.072;2023-03-24T17:36:58;11.40;99.90
11748;DHT22;5931;48.832;9.072;2023-03-24T17:39:24;11.30;99.90
11748;DHT22;5931;48.832;9.072;2023-03-24T17:41:49;11.30;99.90
11748;DHT22;5931;48.832;9.072;2023-03-24T17:44:15;11.20;99.90
11748;DHT22;5931;48.832;9.072;2023-03-24T17:46:41;11.10;99.90
11748;DHT22;5931;48.832;9.072;2023-03-24T17:49:06;11.00;99.90
11748;DHT22;5931;48.832;9.072;2023-03-24T17:51:32;11.00;99.90
11748;DHT22;5931;48.832;9.072;2023-03-24T17:53:58;10.90;99.90
11748;DHT22;5931;48.832;9.072;2023-03-24T17:56:24;10.80;99.90
11748;DHT22;5931;48.832;9.072;2023-03-24T17:58:50;10.70;99.90
11748;DHT22;5931;48.832;9.072;2023-03-24T18:01:18;10.70;99.90
11748;DHT22;5931;48.832;9.072;2023-03-24T18:03:45;10.60;99.90
11748;DHT22;5931;48.832;9.072;2023-03-24T18:06:13;10.60;99.90
11748;DHT22;5931;48.832;9.072;2023-03-24T18:08:41;10.50;99.90
11748;DHT22;5931;48.832;9.072;2023-03-24T18:11:10;10.60;99.90
11748;DHT22;5931;48.832;9.072;2023-03-24T18:13:36;10.60;99.90
11748;DHT22;5931;48.832;9.072;2023-03-24T18:16:02;10.50;99.90
11748;DHT22;5931;48.832;9.072;2023-03-24T18:18:30;10.50;99.90
11748;DHT22;5931;48.832;9.072;2023-03-24T18:20:56;10.40;99.90
11748;DHT22;5931;48.832;9.072;2023-03-24T18:23:21;10.40;99.90
11748;DHT22;5931;48.832;9.072;2023-03-24T18:25:47;10.30;99.90
11748;DHT22;5931;48.832;9.072;2023-03-24T18:28:20;10.30;99.90
11748;DHT22;5931;48.832;9.072;2023-03-24T18:30:46;10.20;99.90
11748;DHT22;5931;48.832;9.072;2023-03-24T18:33:12;10.20;99.90
11748;DHT22;5931;48.832;9.072;2023-03-24T18:35:40;10.20;99.90
11748;DHT22;5931;48.832;9.072;2023-03-24T18:38:06;10.20;99.90
11748;DHT22;5931;48.832;9.072;2023-03-24T18:40:33;10.20;99.90
11748;DHT22;5931;48.832;9.072;2023-03-24T18:42:58;10.20;99.90
11748;DHT22;5931;48.832;9.072;2023-03-24T18:45:24;10.20;99.90
11748;DHT22;5931;48.832;9.072;2023-03-24T18:47:49;10.20;99.90
11748;DHT22;5931;48.832;9.072;2023-03-24T18:50:15;10.40;99.90
11748;DHT22;5931;48.832;9.072;2023-03-24T18:52:41;10.40;99.90
11748;DHT22;5931;48.832;9.072;2023-03-24T18:55:07;10.30;99.90
11748;DHT22;5931;48.832;9.072;2023-03-24T18:57:33;10.30;99.90
11748;DHT22;5931;48.832;9.072;2023-03-24T18:59:59;10.20;99.90
11748;DHT22;5931;48.832;9.072;2023-03-24T19:02:25;10.30;99.90
11748;DHT22;5931;48.832;9.072;2023-03-24T19:04:51;10.40;99.90
11748;DHT22;5931;48.832;9.072;2023-03-24T19:07:18;10.30;99.90
11748;DHT22;5931;48.832;9.072;2023-03-24T19:09:49;10.20;99.90
11748;DHT22;5931;48.832;9.072;2023-03-24T19:12:15;10.20;99.90
11748;DHT22;5931;48.832;9.072;2023-03-24T19:14:42;10.20;99.90
11748;DHT22;5931;48.832;9.072;2023-03-24T19:17:08;10.20;99.90
11748;DHT22;5931;48.832;9.072;2023-03-24T19:19:34;10.20;99.90
11748;DHT22;5931;48.832;9.072;2023-03-24T19:22:00;10.20;99.90
11748;DHT22;5931;48.832;9.072;2023-03-24T19:24:26;10.20;99.90
11748;DHT22;5931;48.832;9.072;2023-03-24T19:26:53;10.20;99.90
11748;DHT22;5931;48.832;9.072;2023-03-24T19:29:19;10.10;99.90
11748;DHT22;5931;48.832;9.072;2023-03-24T19:31:46;10.10;99.90
11748;DHT22;5931;48.832;9.072;2023-03-24T19:34:12;10.10;99.90
11748;DHT22;5931;48.832;9.072;2023-03-24T19:36:38;10.10;99.90
11748;DHT22;5931;48.832;9.072;2023-03-24T19:39:07;10.00;99.90
11748;DHT22;5931;48.832;9.072;2023-03-24T19:41:33;10.00;99.90
11748;DHT22;5931;48.832;9.072;2023-03-24T19:43:58;10.00;99.90
11748;DHT22;5931;48.832;9.072;2023-03-24T19:46:24;10.00;99.90
11748;DHT22;5931;48.832;9.072;2023-03-24T19:48:50;10.00;99.90
11748;DHT22;5931;48.832;9.072;2023-03-24T19:51:16;10.00;99.90
11748;DHT22;5931;48.832;9.072;2023-03-24T19:53:42;9.90;99.90
11748;DHT22;5931;48.832;9.072;2023-03-24T19:56:08;9.90;99.90
11748;DHT22;5931;48.832;9.072;2023-03-24T19:58:34;9.80;99.90
11748;DHT22;5931;48.832;9.072;2023-03-24T20:01:00;9.80;99.90
11748;DHT22;5931;48.832;9.072;2023-03-24T20:03:25;9.70;99.90
11748;DHT22;5931;48.832;9.072;2023-03-24T20:05:53;9.70;99.90
11748;DHT22;5931;48.832;9.072;2023-03-24T20:08:18;9.70;99.90
11748;DHT22;5931;48.832;9.072;2023-03-24T20:10:45;9.60;99.90
11748;DHT22;5931;48.832;9.072;2023-03-24T20:13:10;9.60;99.90
11748;DHT22;5931;48.832;9.072;2023-03-24T20:15:36;9.60;99.90
11748;DHT22;5931;48.832;9.072;2023-03-24T20:18:02;9.60;99.90
11748;DHT22;5931;48.832;9.072;2023-03-24T20:20:28;9.60;99.90
11748;DHT22;5931;48.832;9.072;2023-03-24T20:22:53;9.60;99.90
11748;DHT22;5931;48.832;9.072;2023-03-24T20:25:19;9.50;99.90
11748;DHT22;5931;48.832;9.072;2023-03-24T20:27:45;9.50;99.90
11748;DHT22;5931;48.832;9.072;2023-03-24T20:30:13;9.50;99.90
11748;DHT22;5931;48.832;9.072;2023-03-24T20:32:39;9.50;99.90
11748;DHT22;5931;48.832;9.072;2023-03-24T20:35:05;9.50;99.90
11748;DHT22;5931;48.832;9.072;2023-03-24T20:37:31;9.50;99.90
11748;DHT22;5931;48.832;9.072;2023-03-24T20:40:01;9.50;99.90
11748;DHT22;5931;48.832;9.072;2023-03-24T20:42:27;9.60;99.90
11748;DHT22;5931;48.832;9.072;2023-03-24T20:44:53;9.60;99.90
11748;DHT22;5931;48.832;9.072;2023-03-24T20:47:19;9.60;99.90
11748;DHT22;5931;48.832;9.072;2023-03-24T20:49:45;9.70;99.90
11748;DHT22;5931;48.832;9.072;2023-03-24T20:52:11;9.60;99.90
11748;DHT22;5931;48.832;9.072;2023-03-24T20:54:39;9.50;99.90
11748;DHT22;5931;48.832;9.072;2023-03-24T20:57:07;9.50;99.90
11748;DHT22;5931;48.832;9.072;2023-03-24T20:59:35;9.50;99.90
11748;DHT22;5931;48.832;9.072;2023-03-24T21:02:03;9.50;99.90
11748;DHT22;5931;48.832;9.072;2023-03-24T21:04:34;9.40;99.90
11748;DHT22;5931;48.832;9.072;2023-03-24T21:06:59;9.40;99.90
11748;DHT22;5931;48.832;9.072;2023-03-24T21:09:25;9.50;99.90
11748;DHT22;5931;48.832;9.072;2023-03-24T21:11:52;9.40;99.90
11748;DHT22;5931;48.832;9.072;2023-03-24T21:14:18;9.40;99.90
11748;DHT22;5931;48.832;9.072;2023-03-24T21:16:44;9.60;99.90
11748;DHT22;5931;48.832;9.072;2023-03-24T21:19:10;9.50;99.90
11748;DHT22;5931;48.832;9.072;2023-03-24T21:21:37;9.50;99.90
11748;DHT22;5931;48.832;9.072;2023-03-24T21:24:04;9.40;99.90
11748;DHT22;5931;48.832;9.072;2023-03-24T21:26:30;9.40;99.90
11748;DHT22;5931;48.832;9.072;2023-03-24T21:28:56;9.40;99.90
11748;DHT22;5931;48.832;9.072;2023-03-24T21:31:24;9.50;99.90
11748;DHT22;5931;48.832;9.072;2023-03-24T21:33:50;9.50;99.90
11748;DHT22;5931;48.832;9.072;2023-03-24T21:36:17;9.50;99.90
11748;DHT22;5931;48.832;9.072;2023-03-24T21:38:42;9.50;99.90
11748;DHT22;5931;48.832;9.072;2023-03-24T21:41:08;9.50;99.90
11748;DHT22;5931;48.832;9.072;2023-03-24T21:43:35;9.50;99.90
11748;DHT22;5931;48.832;9.072;2023-03-24T21:46:01;9.40;99.90
11748;DHT22;5931;48.832;9.072;2023-03-24T21:48:29;9.30;99.90
11748;DHT22;5931;48.832;9.072;2023-03-24T21:50:57;9.40;99.90
11748;DHT22;5931;48.832;9.072;2023-03-24T21:53:23;9.40;99.90
11748;DHT22;5931;48.832;9.072;2023-03-24T21:58:17;9.30;99.90
11748;DHT22;5931;48.832;9.072;2023-03-24T22:00:47;9.40;99.90
11748;DHT22;5931;48.832;9.072;2023-03-24T22:03:13;9.30;99.90
11748;DHT22;5931;48.832;9.072;2023-03-24T22:05:40;9.30;99.90
11748;DHT22;5931;48.832;9.072;2023-03-24T22:08:07;9.30;99.90
11748;DHT22;5931;48.832;9.072;2023-03-24T22:10:34;9.30;99.90
11748;DHT22;5931;48.832;9.072;2023-03-24T22:13:01;9.40;99.90
11748;DHT22;5931;48.832;9.072;2023-03-24T22:15:28;9.50;99.90
11748;DHT22;5931;48.832;9.072;2023-03-24T22:17:54;9.50;99.90
11748;DHT22;5931;48.832;9.072;2023-03-24T22:20:20;9.50;99.90
11748;DHT22;5931;48.832;9.072;2023-03-24T22:22:46;9.50;99.90
11748;DHT22;5931;48.832;9.072;2023-03-24T22:25:15;9.40;99.90
11748;DHT22;5931;48.832;9.072;2023-03-24T22:27:42;9.40;99.90
11748;DHT22;5931;48.832;9.072;2023-03-24T22:30:10;9.40;99.90
11748;DHT22;5931;48.832;9.072;2023-03-24T22:32:36;9.30;99.90
11748;DHT22;5931;48.832;9.072;2023-03-24T22:35:02;9.30;99.90
11748;DHT22;5931;48.832;9.072;2023-03-24T22:37:29;9.50;99.90